sensor_id;sensor_type;location;lat;lon;timestamp;temperature;humidity
871;DHT22;422;51.280;7.236;2022-10-16T00:00:41;13.00;99.90
871;DHT22;422;51.280;7.236;2022-10-16T00:03:09;13.00;99.90
871;DHT22;422;51.280;7.236;2022-10-16T00:05:40;13.00;99.90
871;DHT22;422;51.280;7.236;2022-10-16T00:08:11;13.00;99.90
871;DHT22;422;51.280;7.236;2022-10-16T00:10:39;13.10;99.90
871;DHT22;422;51.280;7.236;2022-10-16T00:13:07;13.10;99.90
871;DHT22;422;51.280;7.236;2022-10-16T00:15:36;13.10;99.90
871;DHT22;422;51.280;7.236;2022-10-16T00:18:05;13.10;99.90
871;DHT22;422;51.280;7.236;2022-10-16T00:20:34;13.10;99.90
871;DHT22;422;51.280;7.236;2022-10-16T00:23:05;13.10;99.90
871;DHT22;422;51.280;7.236;2022-10-16T00:25:32;13.10;99.90
871;DHT22;422;51.280;7.236;2022-10-16T00:28:03;13.20;99.90
871;DHT22;422;51.280;7.236;2022-10-16T00:30:30;13.20;99.90
871;DHT22;422;51.280;7.236;2022-10-16T00:32:58;13.30;99.90
871;DHT22;422;51.280;7.236;2022-10-16T00:35:29;13.30;99.90
871;DHT22;422;51.280;7.236;2022-10-16T00:37:59;13.30;99.90
871;DHT22;422;51.280;7.236;2022-10-16T00:40:27;13.30;99.90
871;DHT22;422;51.280;7.236;2022-10-16T00:42:55;13.30;99.90
871;DHT22;422;51.280;7.236;2022-10-16T00:45:22;13.30;99.90
871;DHT22;422;51.280;7.236;2022-10-16T00:47:52;13.30;99.90
871;DHT22;422;51.280;7.236;2022-10-16T00:50:26;13.30;99.90
871;DHT22;422;51.280;7.236;2022-10-16T00:52:55;13.30;99.90
871;DHT22;422;51.280;7.236;2022-10-16T00:55:23;13.30;99.90
871;DHT22;422;51.280;7.236;2022-10-16T00:57:54;13.40;99.90
871;DHT22;422;51.280;7.236;2022-10-16T01:00:24;13.40;99.90
871;DHT22;422;51.280;7.236;2022-10-16T01:02:52;13.30;99.90
871;DHT22;422;51.280;7.236;2022-10-16T01:05:22;13.30;99.90
871;DHT22;422;51.280;7.236;2022-10-16T01:07:58;13.30;99.90
871;DHT22;422;51.280;7.236;2022-10-16T01:10:33;13.30;99.90
871;DHT22;422;51.280;7.236;2022-10-16T01:13:05;13.30;99.90
871;DHT22;422;51.280;7.236;2022-10-16T01:15:37;13.30;99.90
871;DHT22;422;51.280;7.236;2022-10-16T01:18:16;13.30;99.90
871;DHT22;422;51.280;7.236;2022-10-16T01:20:51;13.30;99.90
871;DHT22;422;51.280;7.236;2022-10-16T01:23:36;13.20;99.90
871;DHT22;422;51.280;7.236;2022-10-16T01:26:42;13.30;99.90
871;DHT22;422;51.280;7.236;2022-10-16T01:29:23;13.30;99.90
871;DHT22;422;51.280;7.236;2022-10-16T01:31:56;13.20;99.90
871;DHT22;422;51.280;7.236;2022-10-16T01:34:31;13.20;99.90
871;DHT22;422;51.280;7.236;2022-10-16T01:37:02;13.20;99.90
871;DHT22;422;51.280;7.236;2022-10-16T01:39:34;13.20;99.90
871;DHT22;422;51.280;7.236;2022-10-16T01:42:05;13.20;99.90
871;DHT22;422;51.280;7.236;2022-10-16T01:44:37;13.20;99.90
871;DHT22;422;51.280;7.236;2022-10-16T01:47:07;13.20;99.90
871;DHT22;422;51.280;7.236;2022-10-16T01:49:38;13.10;99.90
871;DHT22;422;51.280;7.236;2022-10-16T01:52:09;13.10;99.90
871;DHT22;422;51.280;7.236;2022-10-16T01:54:40;13.10;99.90
871;DHT22;422;51.280;7.236;2022-10-16T01:57:09;13.10;99.90
871;DHT22;422;51.280;7.236;2022-10-16T01:59:42;13.10;99.90
871;DHT22;422;51.280;7.236;2022-10-16T02:02:11;13.00;99.90
871;DHT22;422;51.280;7.236;2022-10-16T02:04:45;13.00;99.90
871;DHT22;422;51.280;7.236;2022-10-16T02:07:13;13.00;99.90
871;DHT22;422;51.280;7.236;2022-10-16T02:09:40;13.00;99.90
871;DHT22;422;51.280;7.236;2022-10-16T02:12:15;13.00;99.90
871;DHT22;422;51.280;7.236;2022-10-16T02:14:50;13.00;99.90
871;DHT22;422;51.280;7.236;2022-10-16T02:17:18;13.00;99.90
871;DHT22;422;51.280;7.236;2022-10-16T02:19:46;13.00;99.90
871;DHT22;422;51.280;7.236;2022-10-16T02:22:17;12.90;99.90
871;DHT22;422;51.280;7.236;2022-10-16T02:24:53;12.90;99.90
871;DHT22;422;51.280;7.236;2022-10-16T02:27:26;12.90;99.90
871;DHT22;422;51.280;7.236;2022-10-16T02:30:02;12.90;99.90
871;DHT22;422;51.280;7.236;2022-10-16T02:32:36;12.90;99.90
871;DHT22;422;51.280;7.236;2022-10-16T02:35:04;12.80;99.90
871;DHT22;422;51.280;7.236;2022-10-16T02:37:33;12.80;99.90
871;DHT22;422;51.280;7.236;2022-10-16T02:40:00;12.80;99.90
871;DHT22;422;51.280;7.236;2022-10-16T02:42:29;12.80;99.90
871;DHT22;422;51.280;7.236;2022-10-16T02:45:01;12.90;99.90
871;DHT22;422;51.280;7.236;2022-10-16T02:47:28;12.90;99.90
871;DHT22;422;51.280;7.236;2022-10-16T02:49:57;13.00;99.90
871;DHT22;422;51.280;7.236;2022-10-16T02:52:25;13.00;99.90
871;DHT22;422;51.280;7.236;2022-10-16T02:54:52;13.00;99.90
871;DHT22;422;51.280;7.236;2022-10-16T02:57:19;13.00;99.90
871;DHT22;422;51.280;7.236;2022-10-16T02:59:47;13.00;99.90
871;DHT22;422;51.280;7.236;2022-10-16T03:02:15;13.00;99.90
871;DHT22;422;51.280;7.236;2022-10-16T03:04:43;13.00;99.90
871;DHT22;422;51.280;7.236;2022-10-16T03:07:10;13.00;99.90
871;DHT22;422;51.280;7.236;2022-10-16T03:09:37;13.00;99.90
871;DHT22;422;51.280;7.236;2022-10-16T03:12:05;13.00;99.90
871;DHT22;422;51.280;7.236;2022-10-16T03:14:32;13.00;99.90
871;DHT22;422;51.280;7.236;2022-10-16T03:17:03;13.00;99.90
871;DHT22;422;51.280;7.236;2022-10-16T03:19:32;13.00;99.90
871;DHT22;422;51.280;7.236;2022-10-16T03:21:59;12.90;99.90
871;DHT22;422;51.280;7.236;2022-10-16T03:24:26;13.00;99.90
871;DHT22;422;51.280;7.236;2022-10-16T03:26:54;13.00;99.90
871;DHT22;422;51.280;7.236;2022-10-16T03:29:21;13.00;99.90
871;DHT22;422;51.280;7.236;2022-10-16T03:31:49;13.00;99.90
871;DHT22;422;51.280;7.236;2022-10-16T03:34:16;13.00;99.90
871;DHT22;422;51.280;7.236;2022-10-16T03:36:48;13.00;99.90
871;DHT22;422;51.280;7.236;2022-10-16T03:39:15;13.00;99.90
871;DHT22;422;51.280;7.236;2022-10-16T03:41:45;13.00;99.90
871;DHT22;422;51.280;7.236;2022-10-16T03:44:13;13.00;99.90
871;DHT22;422;51.280;7.236;2022-10-16T03:46:40;13.10;99.90
871;DHT22;422;51.280;7.236;2022-10-16T03:49:07;13.10;99.90
871;DHT22;422;51.280;7.236;2022-10-16T03:51:35;13.10;99.90
871;DHT22;422;51.280;7.236;2022-10-16T03:54:03;13.10;99.90
871;DHT22;422;51.280;7.236;2022-10-16T03:56:30;13.10;99.90
871;DHT22;422;51.280;7.236;2022-10-16T03:58:57;13.10;99.90
871;DHT22;422;51.280;7.236;2022-10-16T04:01:25;13.10;99.90
871;DHT22;422;51.280;7.236;2022-10-16T04:03:52;13.00;99.90
871;DHT22;422;51.280;7.236;2022-10-16T04:06:19;13.00;99.90
871;DHT22;422;51.280;7.236;2022-10-16T04:08:46;13.00;99.90
871;DHT22;422;51.280;7.236;2022-10-16T04:11:15;13.00;99.90
871;DHT22;422;51.280;7.236;2022-10-16T04:13:42;13.00;99.90
871;DHT22;422;51.280;7.236;2022-10-16T04:16:09;13.00;99.90
871;DHT22;422;51.280;7.236;2022-10-16T04:18:37;13.00;99.90
871;DHT22;422;51.280;7.236;2022-10-16T04:21:07;12.90;99.90
871;DHT22;422;51.280;7.236;2022-10-16T04:23:34;12.90;99.90
871;DHT22;422;51.280;7.236;2022-10-16T04:26:02;12.90;99.90
871;DHT22;422;51.280;7.236;2022-10-16T04:28:30;12.90;99.90
871;DHT22;422;51.280;7.236;2022-10-16T04:30:58;12.90;99.90
871;DHT22;422;51.280;7.236;2022-10-16T04:33:25;12.90;99.90
871;DHT22;422;51.280;7.236;2022-10-16T04:35:56;12.90;99.90
871;DHT22;422;51.280;7.236;2022-10-16T04:38:24;12.90;99.90
871;DHT22;422;51.280;7.236;2022-10-16T04:40:51;12.90;99.90
871;DHT22;422;51.280;7.236;2022-10-16T04:43:20;12.90;99.90
871;DHT22;422;51.280;7.236;2022-10-16T04:45:48;12.80;99.90
871;DHT22;422;51.280;7.236;2022-10-16T04:48:18;12.80;99.90
871;DHT22;422;51.280;7.236;2022-10-16T04:50:48;12.80;99.90
871;DHT22;422;51.280;7.236;2022-10-16T04:53:15;12.80;99.90
871;DHT22;422;51.280;7.236;2022-10-16T04:55:44;12.80;99.90
871;DHT22;422;51.280;7.236;2022-10-16T04:58:12;12.80;99.90
871;DHT22;422;51.280;7.236;2022-10-16T05:00:42;12.80;99.90
871;DHT22;422;51.280;7.236;2022-10-16T05:03:10;12.80;99.90
871;DHT22;422;51.280;7.236;2022-10-16T05:05:42;12.80;99.90
871;DHT22;422;51.280;7.236;2022-10-16T05:08:10;12.70;99.90
871;DHT22;422;51.280;7.236;2022-10-16T05:10:37;12.70;99.90
871;DHT22;422;51.280;7.236;2022-10-16T05:13:07;12.70;99.90
871;DHT22;422;51.280;7.236;2022-10-16T05:15:37;12.70;99.90
871;DHT22;422;51.280;7.236;2022-10-16T05:18:04;12.70;99.90
871;DHT22;422;51.280;7.236;2022-10-16T05:20:33;12.70;99.90
871;DHT22;422;51.280;7.236;2022-10-16T05:23:01;12.70;99.90
871;DHT22;422;51.280;7.236;2022-10-16T05:25:28;12.60;99.90
871;DHT22;422;51.280;7.236;2022-10-16T05:27:55;12.60;99.90
871;DHT22;422;51.280;7.236;2022-10-16T05:30:22;12.70;99.90
871;DHT22;422;51.280;7.236;2022-10-16T05:32:52;12.70;99.90
871;DHT22;422;51.280;7.236;2022-10-16T05:35:19;12.70;99.90
871;DHT22;422;51.280;7.236;2022-10-16T05:37:48;12.70;99.90
871;DHT22;422;51.280;7.236;2022-10-16T05:40:15;12.60;99.90
871;DHT22;422;51.280;7.236;2022-10-16T05:42:43;12.70;99.90
871;DHT22;422;51.280;7.236;2022-10-16T05:45:11;12.70;99.90
871;DHT22;422;51.280;7.236;2022-10-16T05:47:40;12.70;99.90
871;DHT22;422;51.280;7.236;2022-10-16T05:50:08;12.70;99.90
871;DHT22;422;51.280;7.236;2022-10-16T05:52:35;12.70;99.90
871;DHT22;422;51.280;7.236;2022-10-16T05:55:05;12.60;99.90
871;DHT22;422;51.280;7.236;2022-10-16T05:57:32;12.60;99.90
871;DHT22;422;51.280;7.236;2022-10-16T06:00:00;12.70;99.90
871;DHT22;422;51.280;7.236;2022-10-16T06:02:27;12.70;99.90
871;DHT22;422;51.280;7.236;2022-10-16T06:04:54;12.70;99.90
871;DHT22;422;51.280;7.236;2022-10-16T06:07:22;12.70;99.90
871;DHT22;422;51.280;7.236;2022-10-16T06:09:52;12.80;99.90
871;DHT22;422;51.280;7.236;2022-10-16T06:12:21;12.80;99.90
871;DHT22;422;51.280;7.236;2022-10-16T06:14:48;12.80;99.90
871;DHT22;422;51.280;7.236;2022-10-16T06:17:16;12.80;99.90
871;DHT22;422;51.280;7.236;2022-10-16T06:19:44;12.80;99.90
871;DHT22;422;51.280;7.236;2022-10-16T06:22:11;12.80;99.90
871;DHT22;422;51.280;7.236;2022-10-16T06:24:41;12.90;99.90
871;DHT22;422;51.280;7.236;2022-10-16T06:27:08;12.90;99.90
871;DHT22;422;51.280;7.236;2022-10-16T06:29:37;13.00;99.90
871;DHT22;422;51.280;7.236;2022-10-16T06:32:05;13.00;99.90
871;DHT22;422;51.280;7.236;2022-10-16T06:34:32;13.00;99.90
871;DHT22;422;51.280;7.236;2022-10-16T06:37:00;13.10;99.90
871;DHT22;422;51.280;7.236;2022-10-16T06:39:27;13.10;99.90
871;DHT22;422;51.280;7.236;2022-10-16T06:41:54;13.20;99.90
871;DHT22;422;51.280;7.236;2022-10-16T06:44:21;13.30;99.90
871;DHT22;422;51.280;7.236;2022-10-16T06:46:50;13.30;99.90
871;DHT22;422;51.280;7.236;2022-10-16T06:49:21;13.40;99.90
871;DHT22;422;51.280;7.236;2022-10-16T06:51:48;13.40;99.90
871;DHT22;422;51.280;7.236;2022-10-16T06:54:16;13.50;99.90
871;DHT22;422;51.280;7.236;2022-10-16T06:56:43;13.60;99.90
871;DHT22;422;51.280;7.236;2022-10-16T06:59:10;13.60;99.90
871;DHT22;422;51.280;7.236;2022-10-16T07:01:38;13.70;99.90
871;DHT22;422;51.280;7.236;2022-10-16T07:04:07;13.80;99.90
871;DHT22;422;51.280;7.236;2022-10-16T07:06:34;13.80;1.00
871;DHT22;422;51.280;7.236;2022-10-16T07:09:04;13.90;1.00
871;DHT22;422;51.280;7.236;2022-10-16T07:11:31;14.00;99.90
871;DHT22;422;51.280;7.236;2022-10-16T07:13:58;14.20;65.80
871;DHT22;422;51.280;7.236;2022-10-16T07:16:27;14.30;99.90
871;DHT22;422;51.280;7.236;2022-10-16T07:18:55;14.40;99.90
871;DHT22;422;51.280;7.236;2022-10-16T07:21:29;14.50;1.00
871;DHT22;422;51.280;7.236;2022-10-16T07:23:59;14.50;99.90
871;DHT22;422;51.280;7.236;2022-10-16T07:26:27;14.50;1.00
871;DHT22;422;51.280;7.236;2022-10-16T07:28:56;14.50;99.90
871;DHT22;422;51.280;7.236;2022-10-16T07:31:26;14.40;99.90
871;DHT22;422;51.280;7.236;2022-10-16T07:33:54;14.30;99.90
871;DHT22;422;51.280;7.236;2022-10-16T07:36:21;14.30;99.90
871;DHT22;422;51.280;7.236;2022-10-16T07:38:50;14.50;99.90
871;DHT22;422;51.280;7.236;2022-10-16T07:41:19;14.60;1.00
871;DHT22;422;51.280;7.236;2022-10-16T07:43:49;14.70;99.90
871;DHT22;422;51.280;7.236;2022-10-16T07:46:18;14.80;1.00
871;DHT22;422;51.280;7.236;2022-10-16T07:48:46;14.80;99.90
871;DHT22;422;51.280;7.236;2022-10-16T07:51:15;14.60;99.90
871;DHT22;422;51.280;7.236;2022-10-16T07:53:43;14.50;99.90
871;DHT22;422;51.280;7.236;2022-10-16T07:56:21;14.40;99.90
871;DHT22;422;51.280;7.236;2022-10-16T07:58:51;14.40;99.90
871;DHT22;422;51.280;7.236;2022-10-16T08:01:19;14.40;99.90
871;DHT22;422;51.280;7.236;2022-10-16T08:03:47;14.70;1.00
871;DHT22;422;51.280;7.236;2022-10-16T08:06:18;15.00;99.90
871;DHT22;422;51.280;7.236;2022-10-16T08:08:48;15.10;99.90
871;DHT22;422;51.280;7.236;2022-10-16T08:11:16;15.50;50.60
871;DHT22;422;51.280;7.236;2022-10-16T08:13:46;15.70;1.00
871;DHT22;422;51.280;7.236;2022-10-16T08:16:13;16.10;1.00
871;DHT22;422;51.280;7.236;2022-10-16T08:18:40;16.30;1.00
871;DHT22;422;51.280;7.236;2022-10-16T08:21:12;16.30;1.00
871;DHT22;422;51.280;7.236;2022-10-16T08:23:40;16.40;1.00
871;DHT22;422;51.280;7.236;2022-10-16T08:26:10;16.60;1.00
871;DHT22;422;51.280;7.236;2022-10-16T08:28:39;16.70;1.00
871;DHT22;422;51.280;7.236;2022-10-16T08:31:08;16.90;1.00
871;DHT22;422;51.280;7.236;2022-10-16T08:33:35;17.10;1.00
871;DHT22;422;51.280;7.236;2022-10-16T08:36:08;17.40;1.00
871;DHT22;422;51.280;7.236;2022-10-16T08:38:36;17.50;1.00
871;DHT22;422;51.280;7.236;2022-10-16T08:41:22;17.50;1.00
871;DHT22;422;51.280;7.236;2022-10-16T08:44:03;17.70;1.00
871;DHT22;422;51.280;7.236;2022-10-16T08:46:41;18.00;99.90
871;DHT22;422;51.280;7.236;2022-10-16T08:49:12;17.80;99.90
871;DHT22;422;51.280;7.236;2022-10-16T08:51:42;18.10;99.90
871;DHT22;422;51.280;7.236;2022-10-16T08:54:23;18.40;99.90
871;DHT22;422;51.280;7.236;2022-10-16T08:56:54;18.80;99.90
871;DHT22;422;51.280;7.236;2022-10-16T08:59:23;19.00;99.90
871;DHT22;422;51.280;7.236;2022-10-16T09:01:51;18.90;99.90
871;DHT22;422;51.280;7.236;2022-10-16T09:04:48;19.10;99.90
871;DHT22;422;51.280;7.236;2022-10-16T09:07:24;19.20;99.90
871;DHT22;422;51.280;7.236;2022-10-16T09:10:15;19.10;99.90
871;DHT22;422;51.280;7.236;2022-10-16T09:12:53;19.00;99.90
871;DHT22;422;51.280;7.236;2022-10-16T09:15:29;19.10;99.90
871;DHT22;422;51.280;7.236;2022-10-16T09:18:06;19.20;99.90
871;DHT22;422;51.280;7.236;2022-10-16T09:20:45;19.30;99.90
871;DHT22;422;51.280;7.236;2022-10-16T09:23:18;19.50;99.90
871;DHT22;422;51.280;7.236;2022-10-16T09:25:47;19.60;99.90
871;DHT22;422;51.280;7.236;2022-10-16T09:28:16;19.90;99.90
871;DHT22;422;51.280;7.236;2022-10-16T09:30:47;20.20;99.90
871;DHT22;422;51.280;7.236;2022-10-16T09:33:19;19.50;99.90
871;DHT22;422;51.280;7.236;2022-10-16T09:35:49;19.70;99.90
871;DHT22;422;51.280;7.236;2022-10-16T09:38:27;20.00;99.90
871;DHT22;422;51.280;7.236;2022-10-16T09:40:56;20.10;99.90
871;DHT22;422;51.280;7.236;2022-10-16T09:43:26;20.40;99.90
871;DHT22;422;51.280;7.236;2022-10-16T09:45:59;20.50;99.90
871;DHT22;422;51.280;7.236;2022-10-16T09:48:36;20.20;99.90
871;DHT22;422;51.280;7.236;2022-10-16T09:51:16;20.70;99.90
871;DHT22;422;51.280;7.236;2022-10-16T09:53:53;20.90;99.90
871;DHT22;422;51.280;7.236;2022-10-16T09:56:23;20.70;99.90
871;DHT22;422;51.280;7.236;2022-10-16T09:58:50;20.10;99.90
871;DHT22;422;51.280;7.236;2022-10-16T10:01:21;19.90;99.90
871;DHT22;422;51.280;7.236;2022-10-16T10:03:56;20.00;99.90
871;DHT22;422;51.280;7.236;2022-10-16T10:06:28;19.70;99.90
871;DHT22;422;51.280;7.236;2022-10-16T10:08:59;19.90;99.90
871;DHT22;422;51.280;7.236;2022-10-16T10:11:50;20.00;99.90
871;DHT22;422;51.280;7.236;2022-10-16T10:14:34;20.10;99.90
871;DHT22;422;51.280;7.236;2022-10-16T10:17:14;20.00;99.90
871;DHT22;422;51.280;7.236;2022-10-16T10:19:52;19.90;99.90
871;DHT22;422;51.280;7.236;2022-10-16T10:22:27;19.90;99.90
871;DHT22;422;51.280;7.236;2022-10-16T10:24:56;19.90;99.90
871;DHT22;422;51.280;7.236;2022-10-16T10:27:28;20.20;99.90
871;DHT22;422;51.280;7.236;2022-10-16T10:30:09;20.20;99.90
871;DHT22;422;51.280;7.236;2022-10-16T10:32:50;20.40;99.90
871;DHT22;422;51.280;7.236;2022-10-16T10:35:24;20.40;99.90
871;DHT22;422;51.280;7.236;2022-10-16T10:38:06;19.80;99.90
871;DHT22;422;51.280;7.236;2022-10-16T10:40:45;19.90;99.90
871;DHT22;422;51.280;7.236;2022-10-16T10:43:30;19.60;99.90
871;DHT22;422;51.280;7.236;2022-10-16T10:46:04;19.40;99.90
871;DHT22;422;51.280;7.236;2022-10-16T10:49:04;19.60;99.90
871;DHT22;422;51.280;7.236;2022-10-16T10:51:44;20.00;99.90
871;DHT22;422;51.280;7.236;2022-10-16T10:54:18;20.60;99.90
871;DHT22;422;51.280;7.236;2022-10-16T10:56:57;21.00;99.90
871;DHT22;422;51.280;7.236;2022-10-16T10:59:52;21.40;99.90
871;DHT22;422;51.280;7.236;2022-10-16T11:02:24;21.90;99.90
871;DHT22;422;51.280;7.236;2022-10-16T11:07:58;21.20;99.90
871;DHT22;422;51.280;7.236;2022-10-16T11:10:34;21.10;99.90
871;DHT22;422;51.280;7.236;2022-10-16T11:13:17;21.10;99.90
871;DHT22;422;51.280;7.236;2022-10-16T11:15:48;21.40;99.90
871;DHT22;422;51.280;7.236;2022-10-16T11:18:24;21.40;99.90
871;DHT22;422;51.280;7.236;2022-10-16T11:20:56;21.00;99.90
871;DHT22;422;51.280;7.236;2022-10-16T11:23:29;21.10;99.90
871;DHT22;422;51.280;7.236;2022-10-16T11:26:00;21.00;99.90
871;DHT22;422;51.280;7.236;2022-10-16T11:28:33;21.50;99.90
871;DHT22;422;51.280;7.236;2022-10-16T11:31:09;21.80;99.90
871;DHT22;422;51.280;7.236;2022-10-16T11:33:40;21.10;99.90
871;DHT22;422;51.280;7.236;2022-10-16T11:36:15;21.20;99.90
871;DHT22;422;51.280;7.236;2022-10-16T11:38:50;21.10;99.90
871;DHT22;422;51.280;7.236;2022-10-16T11:41:27;21.20;99.90
871;DHT22;422;51.280;7.236;2022-10-16T11:44:09;21.40;99.90
871;DHT22;422;51.280;7.236;2022-10-16T11:46:50;21.60;99.90
871;DHT22;422;51.280;7.236;2022-10-16T11:49:24;22.20;99.90
871;DHT22;422;51.280;7.236;2022-10-16T11:51:59;21.90;99.90
871;DHT22;422;51.280;7.236;2022-10-16T11:54:35;21.60;99.90
871;DHT22;422;51.280;7.236;2022-10-16T11:57:17;21.20;99.90
871;DHT22;422;51.280;7.236;2022-10-16T11:59:48;21.40;99.90
871;DHT22;422;51.280;7.236;2022-10-16T12:02:33;21.40;99.90
871;DHT22;422;51.280;7.236;2022-10-16T12:05:12;21.90;99.90
871;DHT22;422;51.280;7.236;2022-10-16T12:07:50;21.80;99.90
871;DHT22;422;51.280;7.236;2022-10-16T12:10:26;20.80;99.90
871;DHT22;422;51.280;7.236;2022-10-16T12:12:59;20.80;99.90
871;DHT22;422;51.280;7.236;2022-10-16T12:15:28;20.60;99.90
871;DHT22;422;51.280;7.236;2022-10-16T12:17:57;20.70;99.90
871;DHT22;422;51.280;7.236;2022-10-16T12:20:28;20.80;99.90
871;DHT22;422;51.280;7.236;2022-10-16T12:23:02;21.40;99.90
871;DHT22;422;51.280;7.236;2022-10-16T12:25:35;21.70;99.90
871;DHT22;422;51.280;7.236;2022-10-16T12:28:05;21.90;99.90
871;DHT22;422;51.280;7.236;2022-10-16T12:30:35;22.20;99.90
871;DHT22;422;51.280;7.236;2022-10-16T12:33:16;22.30;99.90
871;DHT22;422;51.280;7.236;2022-10-16T12:35:47;22.10;99.90
871;DHT22;422;51.280;7.236;2022-10-16T12:38:19;22.40;99.90
871;DHT22;422;51.280;7.236;2022-10-16T12:40:58;22.40;99.90
871;DHT22;422;51.280;7.236;2022-10-16T12:43:36;22.60;99.90
871;DHT22;422;51.280;7.236;2022-10-16T12:46:20;23.10;99.90
871;DHT22;422;51.280;7.236;2022-10-16T12:48:50;23.30;99.90
871;DHT22;422;51.280;7.236;2022-10-16T12:51:33;23.60;99.90
871;DHT22;422;51.280;7.236;2022-10-16T12:54:03;23.70;99.90
871;DHT22;422;51.280;7.236;2022-10-16T12:56:41;23.80;99.90
871;DHT22;422;51.280;7.236;2022-10-16T12:59:21;24.00;99.90
871;DHT22;422;51.280;7.236;2022-10-16T13:02:05;23.60;99.90
871;DHT22;422;51.280;7.236;2022-10-16T13:04:46;23.70;99.90
871;DHT22;422;51.280;7.236;2022-10-16T13:07:31;23.50;99.90
871;DHT22;422;51.280;7.236;2022-10-16T13:10:09;23.10;99.90
871;DHT22;422;51.280;7.236;2022-10-16T13:13:09;22.80;99.90
871;DHT22;422;51.280;7.236;2022-10-16T13:15:50;22.00;99.90
871;DHT22;422;51.280;7.236;2022-10-16T13:18:24;21.40;99.90
871;DHT22;422;51.280;7.236;2022-10-16T13:21:08;20.90;99.90
871;DHT22;422;51.280;7.236;2022-10-16T13:23:48;20.70;99.90
871;DHT22;422;51.280;7.236;2022-10-16T13:26:24;20.20;99.90
871;DHT22;422;51.280;7.236;2022-10-16T13:29:02;20.40;99.90
871;DHT22;422;51.280;7.236;2022-10-16T13:31:32;20.90;99.90
871;DHT22;422;51.280;7.236;2022-10-16T13:34:01;21.30;99.90
871;DHT22;422;51.280;7.236;2022-10-16T13:36:34;21.60;99.90
871;DHT22;422;51.280;7.236;2022-10-16T13:39:15;21.90;99.90
871;DHT22;422;51.280;7.236;2022-10-16T13:41:43;21.70;99.90
871;DHT22;422;51.280;7.236;2022-10-16T13:44:17;21.30;99.90
871;DHT22;422;51.280;7.236;2022-10-16T13:46:58;21.20;99.90
871;DHT22;422;51.280;7.236;2022-10-16T13:49:25;21.00;99.90
871;DHT22;422;51.280;7.236;2022-10-16T13:51:56;21.30;99.90
871;DHT22;422;51.280;7.236;2022-10-16T13:54:24;21.60;99.90
871;DHT22;422;51.280;7.236;2022-10-16T13:56:55;21.80;99.90
871;DHT22;422;51.280;7.236;2022-10-16T13:59:25;21.60;99.90
871;DHT22;422;51.280;7.236;2022-10-16T14:01:55;21.60;99.90
871;DHT22;422;51.280;7.236;2022-10-16T14:04:25;21.60;99.90
871;DHT22;422;51.280;7.236;2022-10-16T14:06:55;21.50;99.90
871;DHT22;422;51.280;7.236;2022-10-16T14:09:24;21.20;99.90
871;DHT22;422;51.280;7.236;2022-10-16T14:11:54;20.90;99.90
871;DHT22;422;51.280;7.236;2022-10-16T14:14:24;21.00;99.90
871;DHT22;422;51.280;7.236;2022-10-16T14:16:55;21.30;99.90
871;DHT22;422;51.280;7.236;2022-10-16T14:19:25;21.50;99.90
871;DHT22;422;51.280;7.236;2022-10-16T14:21:53;21.80;99.90
871;DHT22;422;51.280;7.236;2022-10-16T14:24:26;21.90;99.90
871;DHT22;422;51.280;7.236;2022-10-16T14:26:53;21.60;99.90
871;DHT22;422;51.280;7.236;2022-10-16T14:29:28;21.00;99.90
871;DHT22;422;51.280;7.236;2022-10-16T14:31:59;20.80;99.90
871;DHT22;422;51.280;7.236;2022-10-16T14:34:30;20.50;99.90
871;DHT22;422;51.280;7.236;2022-10-16T14:37:01;20.30;99.90
871;DHT22;422;51.280;7.236;2022-10-16T14:39:34;20.20;99.90
871;DHT22;422;51.280;7.236;2022-10-16T14:42:02;20.30;99.90
871;DHT22;422;51.280;7.236;2022-10-16T14:44:32;20.20;99.90
871;DHT22;422;51.280;7.236;2022-10-16T14:47:08;20.20;99.90
871;DHT22;422;51.280;7.236;2022-10-16T14:49:36;20.20;99.90
871;DHT22;422;51.280;7.236;2022-10-16T14:52:08;20.10;99.90
871;DHT22;422;51.280;7.236;2022-10-16T14:54:35;19.90;99.90
871;DHT22;422;51.280;7.236;2022-10-16T14:57:03;19.80;99.90
871;DHT22;422;51.280;7.236;2022-10-16T14:59:36;19.70;99.90
871;DHT22;422;51.280;7.236;2022-10-16T15:02:16;19.60;99.90
871;DHT22;422;51.280;7.236;2022-10-16T15:04:49;19.50;99.90
871;DHT22;422;51.280;7.236;2022-10-16T15:07:16;19.40;99.90
871;DHT22;422;51.280;7.236;2022-10-16T15:09:47;19.40;99.90
871;DHT22;422;51.280;7.236;2022-10-16T15:12:16;19.30;99.90
871;DHT22;422;51.280;7.236;2022-10-16T15:14:44;19.20;99.90
871;DHT22;422;51.280;7.236;2022-10-16T15:17:14;19.20;99.90
871;DHT22;422;51.280;7.236;2022-10-16T15:19:41;19.10;99.90
871;DHT22;422;51.280;7.236;2022-10-16T15:22:11;19.10;99.90
871;DHT22;422;51.280;7.236;2022-10-16T15:24:39;19.10;99.90
871;DHT22;422;51.280;7.236;2022-10-16T15:27:09;19.00;99.90
871;DHT22;422;51.280;7.236;2022-10-16T15:29:38;18.90;99.90
871;DHT22;422;51.280;7.236;2022-10-16T15:32:08;18.80;99.90
871;DHT22;422;51.280;7.236;2022-10-16T15:34:36;18.80;99.90
871;DHT22;422;51.280;7.236;2022-10-16T15:37:03;18.70;99.90
871;DHT22;422;51.280;7.236;2022-10-16T15:39:30;18.70;99.90
871;DHT22;422;51.280;7.236;2022-10-16T15:41:57;18.70;99.90
871;DHT22;422;51.280;7.236;2022-10-16T15:44:24;18.60;99.90
871;DHT22;422;51.280;7.236;2022-10-16T15:46:55;18.60;99.90
871;DHT22;422;51.280;7.236;2022-10-16T15:49:27;18.50;99.90
871;DHT22;422;51.280;7.236;2022-10-16T15:51:54;18.40;99.90
871;DHT22;422;51.280;7.236;2022-10-16T15:54:24;18.40;99.90
871;DHT22;422;51.280;7.236;2022-10-16T15:56:54;18.30;99.90
871;DHT22;422;51.280;7.236;2022-10-16T15:59:28;18.30;99.90
871;DHT22;422;51.280;7.236;2022-10-16T16:01:59;18.20;99.90
871;DHT22;422;51.280;7.236;2022-10-16T16:04:29;18.10;99.90
871;DHT22;422;51.280;7.236;2022-10-16T16:06:56;18.00;99.90
871;DHT22;422;51.280;7.236;2022-10-16T16:09:27;17.90;99.90
871;DHT22;422;51.280;7.236;2022-10-16T16:11:55;17.80;99.90
871;DHT22;422;51.280;7.236;2022-10-16T16:14:24;17.70;99.90
871;DHT22;422;51.280;7.236;2022-10-16T16:16:53;17.60;99.90
871;DHT22;422;51.280;7.236;2022-10-16T16:19:20;17.50;99.90
871;DHT22;422;51.280;7.236;2022-10-16T16:21:50;17.50;99.90
871;DHT22;422;51.280;7.236;2022-10-16T16:24:17;17.50;99.90
871;DHT22;422;51.280;7.236;2022-10-16T16:26:46;17.40;99.90
871;DHT22;422;51.280;7.236;2022-10-16T16:29:14;17.40;99.90
871;DHT22;422;51.280;7.236;2022-10-16T16:31:45;17.40;99.90
871;DHT22;422;51.280;7.236;2022-10-16T16:34:13;17.40;99.90
871;DHT22;422;51.280;7.236;2022-10-16T16:36:42;17.30;99.90
871;DHT22;422;51.280;7.236;2022-10-16T16:39:11;17.30;99.90
871;DHT22;422;51.280;7.236;2022-10-16T16:41:38;17.20;99.90
871;DHT22;422;51.280;7.236;2022-10-16T16:44:12;17.20;99.90
871;DHT22;422;51.280;7.236;2022-10-16T16:46:43;17.20;99.90
871;DHT22;422;51.280;7.236;2022-10-16T16:49:14;17.10;99.90
871;DHT22;422;51.280;7.236;2022-10-16T16:51:44;17.10;99.90
871;DHT22;422;51.280;7.236;2022-10-16T16:54:16;17.10;99.90
871;DHT22;422;51.280;7.236;2022-10-16T16:56:43;17.10;99.90
871;DHT22;422;51.280;7.236;2022-10-16T16:59:13;17.00;99.90
871;DHT22;422;51.280;7.236;2022-10-16T17:01:47;17.00;99.90
871;DHT22;422;51.280;7.236;2022-10-16T17:04:16;17.00;99.90